Terminal Aerodrome Forecast
Issued by NWS Pittsburgh, PA

Current Version | Previous Version | Graphics & Text | Print | Product List | Glossary On
Versions: 1 2 3 4 5 6 7 8 9 10 11 12 13 14 15 16 17 18 19 20 21 22 23 24 25 26 27 28 29 30 31 32 33 34 35 36 37
000
FTUS41 KPBZ 220250 AAA
TAFPIT
TAF AMD
KPIT 220250Z 2203/2306 36010KT P6SM OVC010
     FM220500 36008KT P6SM OVC040
     FM220700 01010KT 5SM -RA OVC030
     FM221000 02010KT 2SM -RA OVC015
     FM221600 03010KT 2SM -RA BR OVC008
     FM221800 05008KT P6SM OVC008
     FM222000 05008KT P6SM OVC010=

USA.gov is the U.S. government's official web portal to all federal, state and local government web resources and services.